Terminal Aerodrome Forecast
Issued by NWS Wakefield, VA

Home | Current Version | Previous Version | Text Only | Print | Product List | Glossary On
Versions: 1 2 3 4 5 6 7 8 9 10 11 12 13
207
FTUS41 KAKQ 151729
TAFECG
TAF
KECG 151729Z 1518/1618 12011KT P6SM BKN150
     FM152000 22010KT P6SM BKN150
     FM160200 28008KT P6SM SKC=

USA.gov is the U.S. government's official web portal to all federal, state and local government web resources and services.